aviador You're here:

OMAL Decoded Metar

AL AIN in UNITED ARAB EMIRATES
Report Time2018-05-20 19:00:00
UTC Time2018-05-20 19:41:35
Flight Rules vfr VFR
Wind340° at 07 kt
W.Decomp.*RWY 01: 6.0 kt HW 3.6 kt LCW
W.Rank340° ranks 6
Current wind is below 340° avg. (8.4)
Visibility9999 m
Phenomena:N/A
Clouds:N/A
Expected CloudBase > 5,600 ft AGL from Temp-Dew spread
CeilingNone
Temp29°C (ISA +16)
Dew Point15°C (43% RH)
Heat Index28.9°C
AAT28.1°C
QNH1009 hPa
Density Alt3,038 ft
Elevation869 ft
Report Wrong Elevation
Raw Report
METAR OMAL 201900Z 34007KT CAVOK 29/15 Q1009 NOSIG=

Extra information for OMAL:More info

Metar Taf Metar & Taf Last 4 Metars F.Rules Stats Wind Profile Meteogram Temp Stats Airport Information Weather charts Add Link Nearby VenuesMetar ALERT Operation Metar Decoded Social comments